WetterOnline ( https://www.wetteronline.de )

Wetter aktuell Feldberg Gipfel

Aktuelles Wetter: Feldberg/Schwarzwald (1493m)

6-stündlich | Neueste Meldungen
Ortszeit Temperatur Wetter
Sa, 02.03. 13:00 3.1° C leicht bewölkt
Sa, 02.03. 7:00 -1.2° C bewölkt
Sa, 02.03. 1:00 -1.2° C Nebel
Fr, 01.03. 19:00 -1.1° C Nebel
Fr, 01.03. 13:00 -0.7° C Nebel
Fr, 01.03. 7:00 -0.5° C Nebel
Fr, 01.03. 1:00 3.4° C bewölkt
Do, 29.02. 19:00 3.7° C wolkenlos
Ortszeit Temperatur Wetter
Sa, 02.03. 16:30 3.3° C bewölkt
Sa, 02.03. 16:10 3.4° C bedeckt
Sa, 02.03. 16:00 3.9° C wolkig
Sa, 02.03. 15:50 3.9° C wolkig
Sa, 02.03. 15:40 4.1° C bedeckt
Sa, 02.03. 15:30 4.4° C bewölkt
Sa, 02.03. 15:00 4.7° C leicht bewölkt
Sa, 02.03. 14:30 5.0° C leicht bewölkt
Sa, 02.03. 14:00 4.5° C leicht bewölkt
Sa, 02.03. 13:30 4.0° C leicht bewölkt
Ortszeit Relative Feuchte Sichtweite
Sa, 02.03. 13:00 75% >70 km
Sa, 02.03. 7:00 92% >70 km
Sa, 02.03. 1:00 99% <100 m
Fr, 01.03. 19:00 99% 0.3 km
Fr, 01.03. 13:00 100% <100 m
Fr, 01.03. 7:00 99% <100 m
Fr, 01.03. 1:00 73% 29 km
Do, 29.02. 19:00 69% 35 km
Ortszeit Relative Feuchte Sichtweite
Sa, 02.03. 16:30 67% >70 km
Sa, 02.03. 16:10 66% -
Sa, 02.03. 16:00 64% 65 km
Sa, 02.03. 15:50 64% -
Sa, 02.03. 15:40 63% -
Sa, 02.03. 15:30 61% 60 km
Sa, 02.03. 15:00 59% >70 km
Sa, 02.03. 14:30 58% 65 km
Sa, 02.03. 14:00 64% 55 km
Sa, 02.03. 13:30 70% >70 km
Ortszeit Niederschlagsmenge Niederschlagsart
Sa, 02.03. 13:00 0.1 l/m2 in 6 Std. Sprühregen
Sa, 02.03. 7:00 0.0 l/m2 in 12 Std. -
Sa, 02.03. 1:00 0.0 l/m2 in 6 Std. -
Fr, 01.03. 19:00 0.1 l/m2 in 12 Std. Niederschlag
Fr, 01.03. 13:00 0.1 l/m2 in 6 Std. Schnee, Niederschlag
Fr, 01.03. 7:00 0.1 l/m2 in 12 Std. Schnee, Niederschlag
Fr, 01.03. 1:00 0.0 l/m2 in 6 Std. -
Do, 29.02. 19:00 0.0 l/m2 in 12 Std. -
Ortszeit Niederschlagsmenge Niederschlagsart
Sa, 02.03. 16:30 0.0 l/m2 in 30 Min -
Sa, 02.03. 16:10 keine Meldung -
Sa, 02.03. 16:00 0.0 l/m2 in 1 Std. -
Sa, 02.03. 15:50 keine Meldung -
Sa, 02.03. 15:40 keine Meldung -
Sa, 02.03. 15:30 0.0 l/m2 in 30 Min -
Sa, 02.03. 15:00 0.0 l/m2 in 1 Std. -
Sa, 02.03. 14:30 0.0 l/m2 in 30 Min -
Sa, 02.03. 14:00 0.0 l/m2 in 1 Std. -
Sa, 02.03. 13:30 0.0 l/m2 in 30 Min -
Ortszeit Stärke Spitze Richtung
km/h Bft. km/h Grad Sektor
Sa, 02.03. 13:00 17 3 61 180° S
Sa, 02.03. 7:00 43 6 50 220° SW
Sa, 02.03. 1:00 33 5 46 200° S
Fr, 01.03. 19:00 31 5 43 200° S
Fr, 01.03. 13:00 25 4 47 210° SW
Fr, 01.03. 7:00 39 6 52 250° W
Fr, 01.03. 1:00 40 6 47 220° SW
Do, 29.02. 19:00 24 4 28 190° S
Ortszeit Stärke Spitze Richtung
km/h Bft. km/h Grad Sektor
Sa, 02.03. 16:30 22 4 28 100° O
Sa, 02.03. 16:10 22 4 - 90° O
Sa, 02.03. 16:00 14 3 22 100° O
Sa, 02.03. 15:50 14 3 - 100° O
Sa, 02.03. 15:40 11 2 - 110° O
Sa, 02.03. 15:30 13 3 19 100° O
Sa, 02.03. 15:00 11 2 25 120° SO
Sa, 02.03. 14:30 14 3 22 180° S
Sa, 02.03. 14:00 18 3 29 160° S
Sa, 02.03. 13:30 17 3 28 180° S
Ortszeit Untergrenze Bedeckung Gattung
total tief tief mittel hoch
Sa, 02.03. 13:00 8700 m 5/8 0/8 - - -
Sa, 02.03. 7:00 480 m 7/8 7/8 - - -
Sa, 02.03. 1:00 <30 m 8/8 0/8 - - -
Fr, 01.03. 19:00 <30 m 8/8 0/8 - - -
Fr, 01.03. 13:00 <30 m 8/8 0/8 - - -
Fr, 01.03. 7:00 <30 m 8/8 0/8 - - -
Fr, 01.03. 1:00 1170 m 7/8 7/8 - - -
Do, 29.02. 19:00 - 0/8 0/8 - - -
Ortszeit Bedeckungsgrad in Achtel und Wolkenuntergrenze
Sa, 02.03. 16:30 6(2700m) 8(3300m)
Sa, 02.03. 16:10 8
Sa, 02.03. 16:00 1(900m) 8(3900m)
Sa, 02.03. 15:50 1(900m) 8(3900m)
Sa, 02.03. 15:40 8
Sa, 02.03. 15:30 6(960m) 6(4500m) 8(5100m)
Sa, 02.03. 15:00 1(3000m) 6(7800m) 7(8400m)
Sa, 02.03. 14:30 5(8100m)
Sa, 02.03. 14:00 1(3600m) 5(7500m) 8(8100m)
Sa, 02.03. 13:30 2(7800m) 3(8400m)
Ortszeit Stationsdruck (hPa) Tendenz (hPa in 3 Std.)
Sa, 02.03. 13:00 837 0,0
Sa, 02.03. 7:00 837 + 0,1
Sa, 02.03. 1:00 838 - 0,6
Fr, 01.03. 19:00 839 - 0,1
Fr, 01.03. 13:00 840 - 0,3
Fr, 01.03. 7:00 840 + 0,4
Fr, 01.03. 1:00 840 - 0,8
Do, 29.02. 19:00 842 - 1,1
Ortszeit Stationsdruck (hPa) Tendenz (hPa in 3 Std.)
Sa, 02.03. 16:30 836 - 1,1
Sa, 02.03. 16:10 836 keine Meldung
Sa, 02.03. 16:00 836 - 1,0
Sa, 02.03. 15:50 836 keine Meldung
Sa, 02.03. 15:40 836 keine Meldung
Sa, 02.03. 15:30 837 - 0,9
Sa, 02.03. 15:00 837 - 0,7
Sa, 02.03. 14:30 837 - 0,4
Sa, 02.03. 14:00 837 - 0,2
Sa, 02.03. 13:30 837 - 0,3
Ortszeit Schneehöhe (cm)
Sa, 02.03. 13:00 32
Sa, 02.03. 7:00 33
Sa, 02.03. 1:00 33
Fr, 01.03. 19:00 33
Fr, 01.03. 13:00 33
Fr, 01.03. 7:00 34
Fr, 01.03. 1:00 33
Do, 29.02. 19:00 33
Ortszeit Schneehöhe (cm)
Sa, 02.03. 16:30 31
Sa, 02.03. 16:10 -
Sa, 02.03. 16:00 31
Sa, 02.03. 15:50 31
Sa, 02.03. 15:40 -
Sa, 02.03. 15:30 31
Sa, 02.03. 15:00 31
Sa, 02.03. 14:30 32
Sa, 02.03. 14:00 32
Sa, 02.03. 13:30 32
Link zu dieser Seite / Seite empfehlen

Das Wetter in ...